sensor_id;sensor_type;location;lat;lon;timestamp;temperature;humidity
72952;HTU21D;61102;51.956;5.878;2022-11-02T00:00:29;18.03;51.32
72952;HTU21D;61102;51.956;5.878;2022-11-02T00:02:55;18.05;51.24
72952;HTU21D;61102;51.956;5.878;2022-11-02T00:05:23;18.06;51.33
72952;HTU21D;61102;51.956;5.878;2022-11-02T00:07:53;18.07;51.33
72952;HTU21D;61102;51.956;5.878;2022-11-02T00:10:22;18.09;51.20
72952;HTU21D;61102;51.956;5.878;2022-11-02T00:12:50;18.09;51.21
72952;HTU21D;61102;51.956;5.878;2022-11-02T00:15:21;18.08;51.30
72952;HTU21D;61102;51.956;5.878;2022-11-02T00:17:52;18.06;51.46
72952;HTU21D;61102;51.956;5.878;2022-11-02T00:20:19;18.02;51.67
72952;HTU21D;61102;51.956;5.878;2022-11-02T00:22:47;17.98;51.85
72952;HTU21D;61102;51.956;5.878;2022-11-02T00:25:20;17.94;52.21
72952;HTU21D;61102;51.956;5.878;2022-11-02T00:27:50;17.72;53.41
72952;HTU21D;61102;51.956;5.878;2022-11-02T00:30:17;17.49;54.45
72952;HTU21D;61102;51.956;5.878;2022-11-02T00:32:43;17.31;55.12
72952;HTU21D;61102;51.956;5.878;2022-11-02T00:35:11;17.11;55.81
72952;HTU21D;61102;51.956;5.878;2022-11-02T00:37:37;17.05;56.22
72952;HTU21D;61102;51.956;5.878;2022-11-02T00:40:04;16.94;56.45
72952;HTU21D;61102;51.956;5.878;2022-11-02T00:42:30;16.91;56.52
72952;HTU21D;61102;51.956;5.878;2022-11-02T00:44:57;16.87;56.61
72952;HTU21D;61102;51.956;5.878;2022-11-02T00:47:24;16.82;56.84
72952;HTU21D;61102;51.956;5.878;2022-11-02T00:49:52;16.82;56.87
72952;HTU21D;61102;51.956;5.878;2022-11-02T00:52:19;16.77;57.05
72952;HTU21D;61102;51.956;5.878;2022-11-02T00:54:48;16.71;57.04
72952;HTU21D;61102;51.956;5.878;2022-11-02T00:57:15;16.65;57.08
72952;HTU21D;61102;51.956;5.878;2022-11-02T00:59:42;16.59;57.07
72952;HTU21D;61102;51.956;5.878;2022-11-02T01:02:09;16.58;56.96
72952;HTU21D;61102;51.956;5.878;2022-11-02T01:04:36;16.64;56.77
72952;HTU21D;61102;51.956;5.878;2022-11-02T01:07:02;16.66;56.60
72952;HTU21D;61102;51.956;5.878;2022-11-02T01:09:35;16.73;56.56
72952;HTU21D;61102;51.956;5.878;2022-11-02T01:12:01;16.77;56.27
72952;HTU21D;61102;51.956;5.878;2022-11-02T01:14:27;16.77;56.28
72952;HTU21D;61102;51.956;5.878;2022-11-02T01:16:53;16.75;56.28
72952;HTU21D;61102;51.956;5.878;2022-11-02T01:19:23;16.76;56.36
72952;HTU21D;61102;51.956;5.878;2022-11-02T01:21:49;16.80;56.41
72952;HTU21D;61102;51.956;5.878;2022-11-02T01:24:17;16.82;56.43
72952;HTU21D;61102;51.956;5.878;2022-11-02T01:26:44;17.34;55.05
72952;HTU21D;61102;51.956;5.878;2022-11-02T01:29:10;17.02;55.63
72952;HTU21D;61102;51.956;5.878;2022-11-02T01:31:37;16.89;56.00
72952;HTU21D;61102;51.956;5.878;2022-11-02T01:34:12;16.85;56.48
72952;HTU21D;61102;51.956;5.878;2022-11-02T01:36:38;16.82;56.42
72952;HTU21D;61102;51.956;5.878;2022-11-02T01:39:04;16.84;56.64
72952;HTU21D;61102;51.956;5.878;2022-11-02T01:41:32;16.81;56.82
72952;HTU21D;61102;51.956;5.878;2022-11-02T01:44:01;16.82;56.90
72952;HTU21D;61102;51.956;5.878;2022-11-02T01:46:42;16.85;56.96
72952;HTU21D;61102;51.956;5.878;2022-11-02T01:49:17;16.92;56.83
72952;HTU21D;61102;51.956;5.878;2022-11-02T01:51:56;16.96;55.30
72952;HTU21D;61102;51.956;5.878;2022-11-02T01:54:30;16.92;54.05
72952;HTU21D;61102;51.956;5.878;2022-11-02T01:57:02;16.85;53.53
72952;HTU21D;61102;51.956;5.878;2022-11-02T01:59:42;16.78;52.12
72952;HTU21D;61102;51.956;5.878;2022-11-02T02:02:15;16.64;52.27
72952;HTU21D;61102;51.956;5.878;2022-11-02T02:04:44;16.54;52.11
72952;HTU21D;61102;51.956;5.878;2022-11-02T02:07:16;16.42;52.08
72952;HTU21D;61102;51.956;5.878;2022-11-02T02:09:43;16.34;52.48
72952;HTU21D;61102;51.956;5.878;2022-11-02T02:12:11;16.34;52.33
72952;HTU21D;61102;51.956;5.878;2022-11-02T02:14:39;16.32;52.44
72952;HTU21D;61102;51.956;5.878;2022-11-02T02:20:17;16.40;52.40
72952;HTU21D;61102;51.956;5.878;2022-11-02T02:29:07;16.58;52.11
72952;HTU21D;61102;51.956;5.878;2022-11-02T02:32:12;16.28;53.04
72952;HTU21D;61102;51.956;5.878;2022-11-02T02:35:03;16.24;53.25
72952;HTU21D;61102;51.956;5.878;2022-11-02T02:37:39;16.15;53.39
72952;HTU21D;61102;51.956;5.878;2022-11-02T02:40:19;16.04;53.71
72952;HTU21D;61102;51.956;5.878;2022-11-02T02:43:08;15.95;53.90
72952;HTU21D;61102;51.956;5.878;2022-11-02T02:48:41;15.74;54.20
72952;HTU21D;61102;51.956;5.878;2022-11-02T02:51:13;15.62;54.65
72952;HTU21D;61102;51.956;5.878;2022-11-02T02:53:44;15.54;54.91
72952;HTU21D;61102;51.956;5.878;2022-11-02T02:56:17;15.45;55.08
72952;HTU21D;61102;51.956;5.878;2022-11-02T02:59:06;15.49;55.26
72952;HTU21D;61102;51.956;5.878;2022-11-02T03:01:34;15.48;55.32
72952;HTU21D;61102;51.956;5.878;2022-11-02T03:04:04;15.51;55.20
72952;HTU21D;61102;51.956;5.878;2022-11-02T03:06:32;15.51;55.41
72952;HTU21D;61102;51.956;5.878;2022-11-02T03:09:18;15.56;55.60
72952;HTU21D;61102;51.956;5.878;2022-11-02T03:12:44;15.63;55.55
72952;HTU21D;61102;51.956;5.878;2022-11-02T03:15:00;15.71;55.16
72952;HTU21D;61102;51.956;5.878;2022-11-02T03:17:35;15.77;55.30
72952;HTU21D;61102;51.956;5.878;2022-11-02T03:36:51;15.53;56.90
72952;HTU21D;61102;51.956;5.878;2022-11-02T03:39:25;15.44;57.08
72952;HTU21D;61102;51.956;5.878;2022-11-02T03:41:56;15.42;57.13
72952;HTU21D;61102;51.956;5.878;2022-11-02T03:44:27;15.41;57.19
72952;HTU21D;61102;51.956;5.878;2022-11-02T03:46:57;15.45;57.06
72952;HTU21D;61102;51.956;5.878;2022-11-02T03:49:28;15.46;56.93
72952;HTU21D;61102;51.956;5.878;2022-11-02T03:51:59;15.48;56.89
72952;HTU21D;61102;51.956;5.878;2022-11-02T03:57:24;15.52;56.74
72952;HTU21D;61102;51.956;5.878;2022-11-02T04:00:12;15.54;56.78
72952;HTU21D;61102;51.956;5.878;2022-11-02T04:02:50;15.54;56.55
72952;HTU21D;61102;51.956;5.878;2022-11-02T04:05:17;15.53;56.38
72952;HTU21D;61102;51.956;5.878;2022-11-02T04:07:48;15.54;56.45
72952;HTU21D;61102;51.956;5.878;2022-11-02T04:10:35;15.55;56.20
72952;HTU21D;61102;51.956;5.878;2022-11-02T04:13:23;15.57;56.11
72952;HTU21D;61102;51.956;5.878;2022-11-02T04:16:10;15.56;56.12
72952;HTU21D;61102;51.956;5.878;2022-11-02T04:18:39;15.55;56.14
72952;HTU21D;61102;51.956;5.878;2022-11-02T04:21:25;15.57;55.94
72952;HTU21D;61102;51.956;5.878;2022-11-02T04:23:52;15.57;55.95
72952;HTU21D;61102;51.956;5.878;2022-11-02T04:26:36;15.56;55.84
72952;HTU21D;61102;51.956;5.878;2022-11-02T04:29:03;15.58;55.81
72952;HTU21D;61102;51.956;5.878;2022-11-02T04:31:30;15.58;55.78
72952;HTU21D;61102;51.956;5.878;2022-11-02T04:33:58;15.59;55.68
72952;HTU21D;61102;51.956;5.878;2022-11-02T04:36:28;15.60;55.71
72952;HTU21D;61102;51.956;5.878;2022-11-02T04:38:56;15.68;55.38
72952;HTU21D;61102;51.956;5.878;2022-11-02T04:41:28;15.76;55.14
72952;HTU21D;61102;51.956;5.878;2022-11-02T04:44:15;15.85;54.94
72952;HTU21D;61102;51.956;5.878;2022-11-02T04:46:46;15.90;54.86
72952;HTU21D;61102;51.956;5.878;2022-11-02T04:49:14;15.99;54.56
72952;HTU21D;61102;51.956;5.878;2022-11-02T04:51:42;16.02;54.52
72952;HTU21D;61102;51.956;5.878;2022-11-02T04:54:08;16.04;54.36
72952;HTU21D;61102;51.956;5.878;2022-11-02T04:56:36;16.04;54.36
72952;HTU21D;61102;51.956;5.878;2022-11-02T04:59:02;16.05;54.24
72952;HTU21D;61102;51.956;5.878;2022-11-02T05:01:32;16.04;54.15
72952;HTU21D;61102;51.956;5.878;2022-11-02T05:04:02;16.04;54.28
72952;HTU21D;61102;51.956;5.878;2022-11-02T05:06:31;16.13;54.13
72952;HTU21D;61102;51.956;5.878;2022-11-02T05:08:57;16.15;54.02
72952;HTU21D;61102;51.956;5.878;2022-11-02T05:11:25;16.17;54.05
72952;HTU21D;61102;51.956;5.878;2022-11-02T05:13:52;16.17;53.88
72952;HTU21D;61102;51.956;5.878;2022-11-02T05:16:19;16.18;53.89
72952;HTU21D;61102;51.956;5.878;2022-11-02T05:18:50;16.20;53.94
72952;HTU21D;61102;51.956;5.878;2022-11-02T05:21:18;16.25;53.73
72952;HTU21D;61102;51.956;5.878;2022-11-02T05:23:45;16.26;53.71
72952;HTU21D;61102;51.956;5.878;2022-11-02T05:26:12;16.26;53.68
72952;HTU21D;61102;51.956;5.878;2022-11-02T05:28:43;16.30;53.50
72952;HTU21D;61102;51.956;5.878;2022-11-02T05:31:10;16.22;53.65
72952;HTU21D;61102;51.956;5.878;2022-11-02T05:33:36;16.71;52.40
72952;HTU21D;61102;51.956;5.878;2022-11-02T05:36:09;16.85;51.93
72952;HTU21D;61102;51.956;5.878;2022-11-02T05:38:38;16.47;52.86
72952;HTU21D;61102;51.956;5.878;2022-11-02T05:41:06;16.35;53.31
72952;HTU21D;61102;51.956;5.878;2022-11-02T05:43:36;16.33;53.42
72952;HTU21D;61102;51.956;5.878;2022-11-02T05:46:06;16.32;53.56
72952;HTU21D;61102;51.956;5.878;2022-11-02T05:48:32;16.36;53.47
72952;HTU21D;61102;51.956;5.878;2022-11-02T05:51:05;16.39;53.62
72952;HTU21D;61102;51.956;5.878;2022-11-02T05:53:32;16.39;53.47
72952;HTU21D;61102;51.956;5.878;2022-11-02T05:56:06;16.42;53.50
72952;HTU21D;61102;51.956;5.878;2022-11-02T05:58:32;16.43;53.23
72952;HTU21D;61102;51.956;5.878;2022-11-02T06:01:01;16.37;53.38
72952;HTU21D;61102;51.956;5.878;2022-11-02T06:03:28;16.34;53.43
72952;HTU21D;61102;51.956;5.878;2022-11-02T06:05:58;16.33;53.51
72952;HTU21D;61102;51.956;5.878;2022-11-02T06:08:25;16.33;53.44
72952;HTU21D;61102;51.956;5.878;2022-11-02T06:10:51;16.34;53.40
72952;HTU21D;61102;51.956;5.878;2022-11-02T06:13:19;16.35;53.39
72952;HTU21D;61102;51.956;5.878;2022-11-02T06:15:46;16.80;52.16
72952;HTU21D;61102;51.956;5.878;2022-11-02T06:18:12;16.52;52.77
72952;HTU21D;61102;51.956;5.878;2022-11-02T06:20:38;16.43;53.10
72952;HTU21D;61102;51.956;5.878;2022-11-02T06:23:05;16.41;53.17
72952;HTU21D;61102;51.956;5.878;2022-11-02T06:25:31;16.41;53.10
72952;HTU21D;61102;51.956;5.878;2022-11-02T06:27:57;16.37;53.20
72952;HTU21D;61102;51.956;5.878;2022-11-02T06:30:27;16.35;53.17
72952;HTU21D;61102;51.956;5.878;2022-11-02T06:32:58;16.34;53.33
72952;HTU21D;61102;51.956;5.878;2022-11-02T06:35:24;16.36;53.18
72952;HTU21D;61102;51.956;5.878;2022-11-02T06:37:50;16.36;53.14
72952;HTU21D;61102;51.956;5.878;2022-11-02T06:40:17;16.30;53.27
72952;HTU21D;61102;51.956;5.878;2022-11-02T06:42:43;16.30;53.23
72952;HTU21D;61102;51.956;5.878;2022-11-02T06:45:10;16.29;53.27
72952;HTU21D;61102;51.956;5.878;2022-11-02T06:47:36;16.22;53.36
72952;HTU21D;61102;51.956;5.878;2022-11-02T06:50:04;16.18;53.44
72952;HTU21D;61102;51.956;5.878;2022-11-02T06:52:31;16.13;53.48
72952;HTU21D;61102;51.956;5.878;2022-11-02T06:54:57;16.05;53.59
72952;HTU21D;61102;51.956;5.878;2022-11-02T06:57:23;15.99;53.73
72952;HTU21D;61102;51.956;5.878;2022-11-02T06:59:49;15.89;53.89
72952;HTU21D;61102;51.956;5.878;2022-11-02T07:02:16;15.81;54.13
72952;HTU21D;61102;51.956;5.878;2022-11-02T07:04:45;15.76;54.20
72952;HTU21D;61102;51.956;5.878;2022-11-02T07:07:12;15.70;54.34
72952;HTU21D;61102;51.956;5.878;2022-11-02T07:09:38;15.66;54.44
72952;HTU21D;61102;51.956;5.878;2022-11-02T07:12:04;15.60;54.55
72952;HTU21D;61102;51.956;5.878;2022-11-02T07:14:30;15.59;54.62
72952;HTU21D;61102;51.956;5.878;2022-11-02T07:16:56;15.57;54.65
72952;HTU21D;61102;51.956;5.878;2022-11-02T07:19:23;15.58;54.71
72952;HTU21D;61102;51.956;5.878;2022-11-02T07:21:49;15.56;54.72
72952;HTU21D;61102;51.956;5.878;2022-11-02T07:24:18;15.55;54.84
72952;HTU21D;61102;51.956;5.878;2022-11-02T07:26:49;15.55;54.94
72952;HTU21D;61102;51.956;5.878;2022-11-02T07:29:18;15.54;54.94
72952;HTU21D;61102;51.956;5.878;2022-11-02T07:31:48;15.53;54.97
72952;HTU21D;61102;51.956;5.878;2022-11-02T07:34:14;15.59;54.78
72952;HTU21D;61102;51.956;5.878;2022-11-02T07:36:43;15.69;54.60
72952;HTU21D;61102;51.956;5.878;2022-11-02T07:39:10;15.78;54.49
72952;HTU21D;61102;51.956;5.878;2022-11-02T07:41:38;15.82;54.49
72952;HTU21D;61102;51.956;5.878;2022-11-02T07:44:04;15.89;54.29
72952;HTU21D;61102;51.956;5.878;2022-11-02T07:46:35;15.98;54.24
72952;HTU21D;61102;51.956;5.878;2022-11-02T07:49:01;16.03;54.16
72952;HTU21D;61102;51.956;5.878;2022-11-02T07:51:27;16.04;54.10
72952;HTU21D;61102;51.956;5.878;2022-11-02T07:53:54;16.03;54.14
72952;HTU21D;61102;51.956;5.878;2022-11-02T07:56:20;16.06;54.04
72952;HTU21D;61102;51.956;5.878;2022-11-02T07:58:47;16.11;53.97
72952;HTU21D;61102;51.956;5.878;2022-11-02T08:01:13;16.17;53.77
72952;HTU21D;61102;51.956;5.878;2022-11-02T08:03:40;16.24;53.68
72952;HTU21D;61102;51.956;5.878;2022-11-02T08:06:06;16.79;52.24
72952;HTU21D;61102;51.956;5.878;2022-11-02T08:08:32;16.60;52.76
72952;HTU21D;61102;51.956;5.878;2022-11-02T08:11:04;16.64;52.95
72952;HTU21D;61102;51.956;5.878;2022-11-02T08:13:30;16.78;52.61
72952;HTU21D;61102;51.956;5.878;2022-11-02T08:15:57;16.85;52.40
72952;HTU21D;61102;51.956;5.878;2022-11-02T08:18:24;16.89;52.10
72952;HTU21D;61102;51.956;5.878;2022-11-02T08:20:56;16.90;52.07
72952;HTU21D;61102;51.956;5.878;2022-11-02T08:23:25;16.92;52.20
72952;HTU21D;61102;51.956;5.878;2022-11-02T08:25:53;17.01;52.04
72952;HTU21D;61102;51.956;5.878;2022-11-02T08:28:36;17.17;51.73
72952;HTU21D;61102;51.956;5.878;2022-11-02T08:31:14;17.23;51.35
72952;HTU21D;61102;51.956;5.878;2022-11-02T08:33:44;17.32;51.42
72952;HTU21D;61102;51.956;5.878;2022-11-02T08:36:14;17.37;51.14
72952;HTU21D;61102;51.956;5.878;2022-11-02T08:38:41;17.41;50.95
72952;HTU21D;61102;51.956;5.878;2022-11-02T08:41:07;17.38;50.84
72952;HTU21D;61102;51.956;5.878;2022-11-02T08:43:35;17.28;50.92
72952;HTU21D;61102;51.956;5.878;2022-11-02T08:46:04;17.20;50.95
72952;HTU21D;61102;51.956;5.878;2022-11-02T08:48:31;17.15;50.97
72952;HTU21D;61102;51.956;5.878;2022-11-02T08:51:03;17.10;51.20
72952;HTU21D;61102;51.956;5.878;2022-11-02T08:53:31;17.11;50.81
72952;HTU21D;61102;51.956;5.878;2022-11-02T08:55:57;17.09;50.87
72952;HTU21D;61102;51.956;5.878;2022-11-02T08:58:27;17.04;50.88
72952;HTU21D;61102;51.956;5.878;2022-11-02T09:00:56;17.05;51.00
72952;HTU21D;61102;51.956;5.878;2022-11-02T09:03:23;17.05;50.85
72952;HTU21D;61102;51.956;5.878;2022-11-02T09:05:56;17.09;50.92
72952;HTU21D;61102;51.956;5.878;2022-11-02T09:08:22;17.17;50.59
72952;HTU21D;61102;51.956;5.878;2022-11-02T09:10:50;17.23;50.66
72952;HTU21D;61102;51.956;5.878;2022-11-02T09:13:17;17.36;50.34
72952;HTU21D;61102;51.956;5.878;2022-11-02T09:15:48;17.43;50.40
72952;HTU21D;61102;51.956;5.878;2022-11-02T09:18:15;17.55;50.20
72952;HTU21D;61102;51.956;5.878;2022-11-02T09:20:45;17.61;49.96
72952;HTU21D;61102;51.956;5.878;2022-11-02T09:23:18;17.64;49.99
72952;HTU21D;61102;51.956;5.878;2022-11-02T09:25:45;17.77;49.75
72952;HTU21D;61102;51.956;5.878;2022-11-02T09:28:11;17.80;49.44
72952;HTU21D;61102;51.956;5.878;2022-11-02T09:30:40;17.91;49.39
72952;HTU21D;61102;51.956;5.878;2022-11-02T09:33:07;18.03;49.18
72952;HTU21D;61102;51.956;5.878;2022-11-02T09:35:37;18.05;49.27
72952;HTU21D;61102;51.956;5.878;2022-11-02T09:38:10;18.14;49.11
72952;HTU21D;61102;51.956;5.878;2022-11-02T09:46:02;18.26;48.43
72952;HTU21D;61102;51.956;5.878;2022-11-02T09:48:51;18.29;48.56
72952;HTU21D;61102;51.956;5.878;2022-11-02T09:51:40;18.39;48.21
72952;HTU21D;61102;51.956;5.878;2022-11-02T09:54:18;18.42;48.15
72952;HTU21D;61102;51.956;5.878;2022-11-02T09:56:46;18.46;47.89
72952;HTU21D;61102;51.956;5.878;2022-11-02T09:59:17;18.43;48.00
72952;HTU21D;61102;51.956;5.878;2022-11-02T10:01:47;18.39;47.63
72952;HTU21D;61102;51.956;5.878;2022-11-02T10:06:52;18.44;48.01
72952;HTU21D;61102;51.956;5.878;2022-11-02T10:09:41;18.58;47.67
72952;HTU21D;61102;51.956;5.878;2022-11-02T10:12:13;18.65;47.72
72952;HTU21D;61102;51.956;5.878;2022-11-02T10:14:58;18.74;47.30
72952;HTU21D;61102;51.956;5.878;2022-11-02T10:17:28;18.81;47.35
72952;HTU21D;61102;51.956;5.878;2022-11-02T10:19:59;18.92;47.21
72952;HTU21D;61102;51.956;5.878;2022-11-02T10:22:30;18.98;47.18
72952;HTU21D;61102;51.956;5.878;2022-11-02T10:25:00;19.08;47.01
72952;HTU21D;61102;51.956;5.878;2022-11-02T10:27:40;19.14;46.60
72952;HTU21D;61102;51.956;5.878;2022-11-02T10:30:17;19.28;46.30
72952;HTU21D;61102;51.956;5.878;2022-11-02T10:32:47;19.33;45.83
72952;HTU21D;61102;51.956;5.878;2022-11-02T10:35:23;19.37;45.80
72952;HTU21D;61102;51.956;5.878;2022-11-02T10:38:10;19.27;45.73
72952;HTU21D;61102;51.956;5.878;2022-11-02T10:46:23;19.37;45.45
72952;HTU21D;61102;51.956;5.878;2022-11-02T10:51:27;19.26;45.59
72952;HTU21D;61102;51.956;5.878;2022-11-02T10:53:56;19.18;45.51
72952;HTU21D;61102;51.956;5.878;2022-11-02T10:56:30;19.16;45.35
72952;HTU21D;61102;51.956;5.878;2022-11-02T10:59:11;19.08;45.70
72952;HTU21D;61102;51.956;5.878;2022-11-02T11:04:30;19.06;45.74
72952;HTU21D;61102;51.956;5.878;2022-11-02T11:07:04;19.05;45.58
72952;HTU21D;61102;51.956;5.878;2022-11-02T11:09:38;19.07;45.74
72952;HTU21D;61102;51.956;5.878;2022-11-02T11:12:20;19.13;45.88
72952;HTU21D;61102;51.956;5.878;2022-11-02T11:14:55;19.21;45.88
72952;HTU21D;61102;51.956;5.878;2022-11-02T11:17:26;19.84;44.49
72952;HTU21D;61102;51.956;5.878;2022-11-02T11:19:55;19.68;45.27
72952;HTU21D;61102;51.956;5.878;2022-11-02T11:22:27;19.79;45.19
72952;HTU21D;61102;51.956;5.878;2022-11-02T11:25:21;19.94;44.79
72952;HTU21D;61102;51.956;5.878;2022-11-02T11:27:55;19.94;44.85
72952;HTU21D;61102;51.956;5.878;2022-11-02T11:30:31;19.90;44.41
72952;HTU21D;61102;51.956;5.878;2022-11-02T11:33:04;19.80;44.54
72952;HTU21D;61102;51.956;5.878;2022-11-02T11:35:34;19.73;44.82
72952;HTU21D;61102;51.956;5.878;2022-11-02T11:38:03;19.74;44.68
72952;HTU21D;61102;51.956;5.878;2022-11-02T11:40:37;19.74;44.81
72952;HTU21D;61102;51.956;5.878;2022-11-02T11:43:14;19.74;44.69
72952;HTU21D;61102;51.956;5.878;2022-11-02T11:46:02;19.76;44.45
72952;HTU21D;61102;51.956;5.878;2022-11-02T11:48:34;19.74;44.61
72952;HTU21D;61102;51.956;5.878;2022-11-02T11:51:03;19.75;44.33
72952;HTU21D;61102;51.956;5.878;2022-11-02T11:53:32;19.75;44.10
72952;HTU21D;61102;51.956;5.878;2022-11-02T11:56:00;19.75;43.64
72952;HTU21D;61102;51.956;5.878;2022-11-02T11:58:31;19.71;43.70
72952;HTU21D;61102;51.956;5.878;2022-11-02T12:01:09;19.74;43.60
72952;HTU21D;61102;51.956;5.878;2022-11-02T12:03:59;19.85;43.00
72952;HTU21D;61102;51.956;5.878;2022-11-02T12:12:24;19.88;42.74
72952;HTU21D;61102;51.956;5.878;2022-11-02T12:18:32;19.88;42.51
72952;HTU21D;61102;51.956;5.878;2022-11-02T12:26:29;19.84;41.39
72952;HTU21D;61102;51.956;5.878;2022-11-02T12:31:43;19.87;41.76
72952;HTU21D;61102;51.956;5.878;2022-11-02T12:45:47;19.98;40.58
72952;HTU21D;61102;51.956;5.878;2022-11-02T12:48:24;20.11;40.44
72952;HTU21D;61102;51.956;5.878;2022-11-02T12:51:18;20.42;39.35
72952;HTU21D;61102;51.956;5.878;2022-11-02T12:53:53;20.79;38.67
72952;HTU21D;61102;51.956;5.878;2022-11-02T12:56:29;21.16;38.53
72952;HTU21D;61102;51.956;5.878;2022-11-02T12:58:57;21.48;38.40
72952;HTU21D;61102;51.956;5.878;2022-11-02T13:01:30;21.60;38.42
72952;HTU21D;61102;51.956;5.878;2022-11-02T13:04:16;21.40;38.24
72952;HTU21D;61102;51.956;5.878;2022-11-02T13:06:48;21.43;38.14
72952;HTU21D;61102;51.956;5.878;2022-11-02T13:09:55;21.88;37.53
72952;HTU21D;61102;51.956;5.878;2022-11-02T13:12:17;22.55;36.21
72952;HTU21D;61102;51.956;5.878;2022-11-02T13:14:49;23.03;35.24
72952;HTU21D;61102;51.956;5.878;2022-11-02T13:20:18;23.26;34.89
72952;HTU21D;61102;51.956;5.878;2022-11-02T13:22:54;23.10;34.73
72952;HTU21D;61102;51.956;5.878;2022-11-02T13:25:31;23.34;34.64
72952;HTU21D;61102;51.956;5.878;2022-11-02T13:30:49;24.56;32.73
72952;HTU21D;61102;51.956;5.878;2022-11-02T13:33:25;24.76;32.61
72952;HTU21D;61102;51.956;5.878;2022-11-02T13:35:56;24.20;32.70
72952;HTU21D;61102;51.956;5.878;2022-11-02T13:38:43;23.86;32.95
72952;HTU21D;61102;51.956;5.878;2022-11-02T13:50:32;21.67;36.84
72952;HTU21D;61102;51.956;5.878;2022-11-02T13:53:29;21.37;37.33
72952;HTU21D;61102;51.956;5.878;2022-11-02T13:56:10;21.14;37.69
72952;HTU21D;61102;51.956;5.878;2022-11-02T13:58:48;20.78;38.41
72952;HTU21D;61102;51.956;5.878;2022-11-02T14:01:18;20.53;38.83
72952;HTU21D;61102;51.956;5.878;2022-11-02T14:06:25;20.18;39.77
72952;HTU21D;61102;51.956;5.878;2022-11-02T14:09:02;20.06;40.28
72952;HTU21D;61102;51.956;5.878;2022-11-02T14:14:41;19.85;40.86
72952;HTU21D;61102;51.956;5.878;2022-11-02T14:17:18;19.72;41.07
72952;HTU21D;61102;51.956;5.878;2022-11-02T14:19:54;19.61;41.37
72952;HTU21D;61102;51.956;5.878;2022-11-02T14:22:22;19.55;41.47
72952;HTU21D;61102;51.956;5.878;2022-11-02T14:38:43;19.23;42.36
72952;HTU21D;61102;51.956;5.878;2022-11-02T14:41:04;19.31;42.42
72952;HTU21D;61102;51.956;5.878;2022-11-02T14:49:20;19.30;42.93
72952;HTU21D;61102;51.956;5.878;2022-11-02T14:52:01;19.24;42.97
72952;HTU21D;61102;51.956;5.878;2022-11-02T14:54:30;19.12;43.22
72952;HTU21D;61102;51.956;5.878;2022-11-02T14:59:56;19.06;43.51
72952;HTU21D;61102;51.956;5.878;2022-11-02T15:02:37;18.99;43.84
72952;HTU21D;61102;51.956;5.878;2022-11-02T15:05:10;18.94;44.00
72952;HTU21D;61102;51.956;5.878;2022-11-02T15:07:56;18.84;44.32
72952;HTU21D;61102;51.956;5.878;2022-11-02T15:10:37;18.73;44.45
72952;HTU21D;61102;51.956;5.878;2022-11-02T15:13:30;18.65;44.67
72952;HTU21D;61102;51.956;5.878;2022-11-02T15:18:40;18.37;45.31
72952;HTU21D;61102;51.956;5.878;2022-11-02T15:24:16;18.22;45.77
72952;HTU21D;61102;51.956;5.878;2022-11-02T15:26:58;18.18;45.90
72952;HTU21D;61102;51.956;5.878;2022-11-02T15:32:10;17.97;46.34
72952;HTU21D;61102;51.956;5.878;2022-11-02T15:35:03;17.94;46.43
72952;HTU21D;61102;51.956;5.878;2022-11-02T15:37:37;17.88;46.37
72952;HTU21D;61102;51.956;5.878;2022-11-02T15:41:24;17.82;46.70
72952;HTU21D;61102;51.956;5.878;2022-11-02T15:43:56;17.82;46.73
72952;HTU21D;61102;51.956;5.878;2022-11-02T15:49:40;17.76;46.82
72952;HTU21D;61102;51.956;5.878;2022-11-02T16:01:27;17.46;47.57
72952;HTU21D;61102;51.956;5.878;2022-11-02T16:04:04;17.37;47.82
72952;HTU21D;61102;51.956;5.878;2022-11-02T16:06:35;17.32;47.97
72952;HTU21D;61102;51.956;5.878;2022-11-02T16:09:34;17.30;48.26
72952;HTU21D;61102;51.956;5.878;2022-11-02T16:14:38;17.16;48.32
72952;HTU21D;61102;51.956;5.878;2022-11-02T16:17:16;17.09;48.43
72952;HTU21D;61102;51.956;5.878;2022-11-02T16:19:42;17.07;48.37
72952;HTU21D;61102;51.956;5.878;2022-11-02T16:22:08;17.03;48.49
72952;HTU21D;61102;51.956;5.878;2022-11-02T16:24:36;16.96;48.58
72952;HTU21D;61102;51.956;5.878;2022-11-02T16:27:11;16.90;48.82
72952;HTU21D;61102;51.956;5.878;2022-11-02T16:29:38;16.88;48.89
72952;HTU21D;61102;51.956;5.878;2022-11-02T16:32:08;17.29;47.88
72952;HTU21D;61102;51.956;5.878;2022-11-02T16:34:34;16.94;48.53
72952;HTU21D;61102;51.956;5.878;2022-11-02T16:37:01;16.81;48.94
72952;HTU21D;61102;51.956;5.878;2022-11-02T16:39:29;16.73;49.25
72952;HTU21D;61102;51.956;5.878;2022-11-02T16:42:00;16.70;49.26
72952;HTU21D;61102;51.956;5.878;2022-11-02T16:44:31;16.66;49.54
72952;HTU21D;61102;51.956;5.878;2022-11-02T16:52:26;16.60;49.91
72952;HTU21D;61102;51.956;5.878;2022-11-02T16:54:53;16.58;49.82
72952;HTU21D;61102;51.956;5.878;2022-11-02T16:57:23;16.55;50.01
72952;HTU21D;61102;51.956;5.878;2022-11-02T16:59:56;16.54;50.09
72952;HTU21D;61102;51.956;5.878;2022-11-02T17:02:38;16.57;50.09
72952;HTU21D;61102;51.956;5.878;2022-11-02T17:08:26;16.51;50.05
72952;HTU21D;61102;51.956;5.878;2022-11-02T17:10:43;16.56;49.92
72952;HTU21D;61102;51.956;5.878;2022-11-02T17:13:14;16.50;50.10
72952;HTU21D;61102;51.956;5.878;2022-11-02T17:15:50;16.48;50.11
72952;HTU21D;61102;51.956;5.878;2022-11-02T17:23:43;16.48;49.98
72952;HTU21D;61102;51.956;5.878;2022-11-02T17:26:31;16.49;49.95
72952;HTU21D;61102;51.956;5.878;2022-11-02T17:31:55;16.41;49.98
72952;HTU21D;61102;51.956;5.878;2022-11-02T17:34:25;16.35;49.97
72952;HTU21D;61102;51.956;5.878;2022-11-02T17:36:51;16.33;50.05
72952;HTU21D;61102;51.956;5.878;2022-11-02T17:39:19;16.28;50.17
72952;HTU21D;61102;51.956;5.878;2022-11-02T17:41:51;16.26;50.28
72952;HTU21D;61102;51.956;5.878;2022-11-02T17:44:37;16.22;50.26
72952;HTU21D;61102;51.956;5.878;2022-11-02T17:47:16;16.20;50.50
72952;HTU21D;61102;51.956;5.878;2022-11-02T17:49:44;16.14;50.46
72952;HTU21D;61102;51.956;5.878;2022-11-02T17:52:14;16.12;50.63
72952;HTU21D;61102;51.956;5.878;2022-11-02T17:54:44;16.08;50.63
72952;HTU21D;61102;51.956;5.878;2022-11-02T17:57:13;16.02;50.79
72952;HTU21D;61102;51.956;5.878;2022-11-02T17:59:39;16.01;50.77
72952;HTU21D;61102;51.956;5.878;2022-11-02T18:02:11;15.99;50.98
72952;HTU21D;61102;51.956;5.878;2022-11-02T18:04:42;15.98;50.94
72952;HTU21D;61102;51.956;5.878;2022-11-02T18:07:08;15.98;50.92
72952;HTU21D;61102;51.956;5.878;2022-11-02T18:09:37;15.99;50.96
72952;HTU21D;61102;51.956;5.878;2022-11-02T18:12:03;15.97;50.88
72952;HTU21D;61102;51.956;5.878;2022-11-02T18:14:32;15.98;50.92
72952;HTU21D;61102;51.956;5.878;2022-11-02T18:17:01;15.99;50.95
72952;HTU21D;61102;51.956;5.878;2022-11-02T18:19:27;15.99;50.88
72952;HTU21D;61102;51.956;5.878;2022-11-02T18:21:57;15.99;50.88
72952;HTU21D;61102;51.956;5.878;2022-11-02T18:24:23;15.99;50.88
72952;HTU21D;61102;51.956;5.878;2022-11-02T18:26:53;15.99;50.88